Details for S7 Airlines at UNNT




Go Back


Latest METAR
Local Time

UNNT 022100Z 18006MPS CAVOK 05/02 Q1015 R25/290150 R16/290150 NOSIG RMK QFE751/1002
03/04/2020, 04:21:10

Description
Results
S7 Airlines Logo
Number of Pilots based at UNNT
0 Pilots Based here
Number of S7 Airlines Flights Departed from UNNT
0 Flights Departed
Number of S7 Airlines Flights Arrived at UNNT
0 Flights Arrived
Number of S7 Airlines Schedules Departing from UNNT
44 Schedules
Number of S7 Airlines Schedules Arriving at UNNT
47 Schedules
Number of S7 Airlines Schedules Departing from UNNT availible today
21 Schedules Today
Number of S7 Airlines Schedules Arriving at UNNT availible today
22 Schedules Today
Average Landing Rate at UNNT
0 fpm
S7 Airlines Average Landing Rate at UNNT
0 fpm
Total Fuel Purchased at UNNT by S7 Airlines
0.00 kgs / 0.00 lbs

Pilots Based at UNNT


Pilot ID
Pilot Name
Pilot Rank
No. of Flights
No. of Flying Hours
There are no pilots assigned to this hub!   Will you be the first?